Custer, Michigan
Current Conditions -  °F | °C
As of 9:15 AM on Thursday 27 Nov 2014 (Local Time) from KLDM Reporting Station
Heavy Snow Heavy Snow  
Wind Chill: -3°   Ceiling: 300
Heat Index: -3°   Visibility: 0.25mi
Dew Point: -4°   Wind: 0mph
Humidity: 94%   Direction: NA
Pressure: 30.22"   Gusts: NA
Location:  43.95°N, 86.22°W
Report Text: KLDM 271415Z AUTO 00000KT 1/4SM +SN OVC003 M03/M04 A3022 RMK AO2 T10281036
Loading
Personal Weather Stations






























Interactive Weather Map New forecast layout! Learn more

10-Day Weather Forecast

Advertisements
Track Severe Weather on mobile